KVUO

Details ICAO KVUO
Name Pearson Airfield
Region United States
Timezone America/Los_Angeles (UTC-7.0)
Plans Departing 18
Arriving 8
Stats Elevation 82 ft / 25 m (AMSL)
Location 45.620452° -122.656490°
Runways 1
Magnetic Variation 15.254° E
Sunrise 2018-05-24 12:31:55 UTC / 2018-05-24 05:31:55 Local
Sunset 2018-05-25 03:45:56 UTC / 2018-05-24 20:45:56 Local
Advertisement - Login to hide

Runways

ID Width Length Bearing (true) Bearing (mag) Surface Threshold Offset Overrun Length
08 59 ft / 18 m 3,268 ft / 996 m 98.30° 83.05° Asphalt 0 ft / 0 m 0 ft / 0 m
26 59 ft / 18 m 3,268 ft / 996 m 278.30° 263.05° Asphalt 738 ft / 225 m 0 ft / 0 m

Map

Weather


0- 5 10 15 20 25 30 35+ Temperature / ° C

Clouds and Precipitation
Forecast for 2018-05-24 18:00 UTC. Updated 4 hours ago

Ground ~20,000 ft ~40,000 ft Winds

METAR

KVUO 242053Z AUTO 27009KT 10SM CLR 21/13 A3003 RMK AO2 SLP170 T02110133 58011

TAF

Not found

Frequencies

Recorded 135.12 MHz ASOS
Clearance 121.65 MHz CLNC DEL
Approach 124.35 MHz PORTLAND APP
Unicom 123.00 MHz CTAF/UNICOM
Approach 118.10 MHz PORTLAND APP
Departure 124.35 MHz PORTLAND DEP
Warning: Do not use this data for real-world aviation or navigation. No guarantee of current accuracy is given.